Perwez, Belgium
Current Conditions -  °F | °C
As of 5:25 AM on Thursday 23 Oct 2014 (Local Time) from EBBE Reporting Station
Few Clouds Few Clouds  
Wind Chill: 44°   Ceiling: Unl
Heat Index: 46°   Visibility: 6mi
Dew Point: 43°   Wind: 6mph
Humidity: 87%   Direction: 210°SSW
Pressure: 30.21"   Gusts: NA
Location:  50.62°N, 4.81°E
Report Text: EBBE 230325Z 21005KT 9999 FEW060 08/06 Q1023 BLU
Loading
Personal Weather Stations






























Interactive Weather Map
Tropical Storm Tracking
New forecast layout! Learn more

10-Day Weather Forecast

Advertisements
Track Severe Weather on mobile